sensor_id;sensor_type;location;lat;lon;timestamp;P1;durP1;ratioP1;P2;durP2;ratioP2
3231;SDS011;1628;48.884;9.210;2022-09-09T04:01:41;3.43;;;2.60;;
3231;SDS011;1628;48.884;9.210;2022-09-09T04:04:10;4.57;;;2.60;;
3231;SDS011;1628;48.884;9.210;2022-09-09T04:06:37;3.27;;;2.83;;
3231;SDS011;1628;48.884;9.210;2022-09-09T04:09:03;4.33;;;2.53;;
3231;SDS011;1628;48.884;9.210;2022-09-09T04:11:30;2.97;;;2.30;;
3231;SDS011;1628;48.884;9.210;2022-09-09T04:13:57;4.83;;;2.57;;
3231;SDS011;1628;48.884;9.210;2022-09-09T04:16:23;3.00;;;2.47;;
3231;SDS011;1628;48.884;9.210;2022-09-09T04:18:52;2.40;;;2.20;;
3231;SDS011;1628;48.884;9.210;2022-09-09T04:21:19;4.30;;;2.27;;
3231;SDS011;1628;48.884;9.210;2022-09-09T04:23:46;2.23;;;2.03;;
3231;SDS011;1628;48.884;9.210;2022-09-09T04:26:12;6.97;;;2.83;;
3231;SDS011;1628;48.884;9.210;2022-09-09T04:28:39;3.70;;;2.40;;
3231;SDS011;1628;48.884;9.210;2022-09-09T04:31:06;3.80;;;2.27;;
3231;SDS011;1628;48.884;9.210;2022-09-09T04:33:34;6.53;;;2.80;;
3231;SDS011;1628;48.884;9.210;2022-09-09T04:36:03;4.97;;;2.43;;
3231;SDS011;1628;48.884;9.210;2022-09-09T04:38:31;4.00;;;2.40;;
3231;SDS011;1628;48.884;9.210;2022-09-09T04:40:57;4.03;;;2.40;;
3231;SDS011;1628;48.884;9.210;2022-09-09T04:43:24;2.37;;;1.73;;
3231;SDS011;1628;48.884;9.210;2022-09-09T04:45:55;2.10;;;1.90;;
3231;SDS011;1628;48.884;9.210;2022-09-09T04:48:23;5.23;;;2.53;;
3231;SDS011;1628;48.884;9.210;2022-09-09T04:50:53;3.60;;;2.00;;
3231;SDS011;1628;48.884;9.210;2022-09-09T04:53:22;3.77;;;2.20;;
3231;SDS011;1628;48.884;9.210;2022-09-09T04:55:50;3.87;;;1.77;;
3231;SDS011;1628;48.884;9.210;2022-09-09T04:58:17;2.10;;;1.90;;
3231;SDS011;1628;48.884;9.210;2022-09-09T05:00:43;2.37;;;1.70;;
3231;SDS011;1628;48.884;9.210;2022-09-09T05:03:11;3.10;;;1.90;;
3231;SDS011;1628;48.884;9.210;2022-09-09T05:05:38;4.63;;;2.23;;
3231;SDS011;1628;48.884;9.210;2022-09-09T05:08:05;5.60;;;2.20;;
3231;SDS011;1628;48.884;9.210;2022-09-09T05:10:36;1.90;;;1.80;;
3231;SDS011;1628;48.884;9.210;2022-09-09T05:13:04;2.67;;;2.03;;
3231;SDS011;1628;48.884;9.210;2022-09-09T05:15:31;2.93;;;2.00;;
3231;SDS011;1628;48.884;9.210;2022-09-09T05:17:58;4.20;;;2.50;;
3231;SDS011;1628;48.884;9.210;2022-09-09T05:20:27;4.30;;;2.43;;
3231;SDS011;1628;48.884;9.210;2022-09-09T05:22:54;2.93;;;2.00;;
3231;SDS011;1628;48.884;9.210;2022-09-09T05:25:22;2.23;;;1.83;;
3231;SDS011;1628;48.884;9.210;2022-09-09T05:27:51;3.97;;;2.13;;
3231;SDS011;1628;48.884;9.210;2022-09-09T05:30:18;3.67;;;2.00;;
3231;SDS011;1628;48.884;9.210;2022-09-09T05:32:45;4.10;;;1.70;;
3231;SDS011;1628;48.884;9.210;2022-09-09T05:35:13;4.17;;;2.00;;
3231;SDS011;1628;48.884;9.210;2022-09-09T05:37:41;4.83;;;2.20;;
3231;SDS011;1628;48.884;9.210;2022-09-09T05:40:08;5.07;;;2.00;;
3231;SDS011;1628;48.884;9.210;2022-09-09T05:42:35;2.50;;;1.60;;
3231;SDS011;1628;48.884;9.210;2022-09-09T05:45:05;2.57;;;1.80;;
3231;SDS011;1628;48.884;9.210;2022-09-09T05:47:33;5.40;;;2.90;;
3231;SDS011;1628;48.884;9.210;2022-09-09T05:50:00;3.43;;;1.80;;
3231;SDS011;1628;48.884;9.210;2022-09-09T05:52:27;3.83;;;2.00;;
3231;SDS011;1628;48.884;9.210;2022-09-09T05:54:54;3.50;;;1.87;;
3231;SDS011;1628;48.884;9.210;2022-09-09T05:57:21;5.17;;;2.60;;
3231;SDS011;1628;48.884;9.210;2022-09-09T05:59:48;3.37;;;1.90;;
3231;SDS011;1628;48.884;9.210;2022-09-09T06:02:16;5.27;;;2.17;;
3231;SDS011;1628;48.884;9.210;2022-09-09T06:04:43;4.50;;;2.40;;
3231;SDS011;1628;48.884;9.210;2022-09-09T06:07:09;5.27;;;1.83;;
3231;SDS011;1628;48.884;9.210;2022-09-09T06:09:36;4.10;;;2.00;;
3231;SDS011;1628;48.884;9.210;2022-09-09T06:12:03;3.97;;;2.00;;
3231;SDS011;1628;48.884;9.210;2022-09-09T06:14:30;4.00;;;2.10;;
3231;SDS011;1628;48.884;9.210;2022-09-09T06:16:57;4.50;;;2.27;;
3231;SDS011;1628;48.884;9.210;2022-09-09T06:19:25;2.63;;;1.70;;
3231;SDS011;1628;48.884;9.210;2022-09-09T06:21:51;2.13;;;2.03;;
3231;SDS011;1628;48.884;9.210;2022-09-09T06:24:18;4.47;;;2.50;;
3231;SDS011;1628;48.884;9.210;2022-09-09T06:26:45;7.20;;;2.03;;
3231;SDS011;1628;48.884;9.210;2022-09-09T06:29:11;4.87;;;2.30;;
3231;SDS011;1628;48.884;9.210;2022-09-09T06:31:38;2.07;;;1.90;;
3231;SDS011;1628;48.884;9.210;2022-09-09T06:34:06;3.00;;;1.97;;
3231;SDS011;1628;48.884;9.210;2022-09-09T06:36:36;3.43;;;2.37;;
3231;SDS011;1628;48.884;9.210;2022-09-09T06:39:04;4.20;;;2.23;;
3231;SDS011;1628;48.884;9.210;2022-09-09T06:41:32;4.37;;;2.23;;
3231;SDS011;1628;48.884;9.210;2022-09-09T06:43:59;7.13;;;2.30;;
3231;SDS011;1628;48.884;9.210;2022-09-09T06:46:27;5.60;;;2.37;;
3231;SDS011;1628;48.884;9.210;2022-09-09T06:48:55;2.50;;;1.70;;
3231;SDS011;1628;48.884;9.210;2022-09-09T06:51:24;3.23;;;2.13;;
3231;SDS011;1628;48.884;9.210;2022-09-09T06:53:54;3.33;;;1.90;;
3231;SDS011;1628;48.884;9.210;2022-09-09T06:56:23;2.30;;;1.87;;
3231;SDS011;1628;48.884;9.210;2022-09-09T06:58:51;4.20;;;2.30;;
3231;SDS011;1628;48.884;9.210;2022-09-09T07:01:19;5.07;;;1.50;;
3231;SDS011;1628;48.884;9.210;2022-09-09T07:03:48;3.47;;;2.40;;
3231;SDS011;1628;48.884;9.210;2022-09-09T07:06:17;4.93;;;1.77;;
3231;SDS011;1628;48.884;9.210;2022-09-09T07:08:48;5.60;;;2.10;;
3231;SDS011;1628;48.884;9.210;2022-09-09T07:11:18;8.73;;;2.10;;
3231;SDS011;1628;48.884;9.210;2022-09-09T07:13:46;2.40;;;2.10;;
3231;SDS011;1628;48.884;9.210;2022-09-09T07:16:13;3.00;;;1.70;;
3231;SDS011;1628;48.884;9.210;2022-09-09T07:18:42;6.47;;;2.17;;
3231;SDS011;1628;48.884;9.210;2022-09-09T07:21:09;3.17;;;1.77;;
3231;SDS011;1628;48.884;9.210;2022-09-09T07:23:36;10.47;;;1.60;;
3231;SDS011;1628;48.884;9.210;2022-09-09T07:26:07;3.63;;;1.70;;
3231;SDS011;1628;48.884;9.210;2022-09-09T07:28:36;3.47;;;1.20;;
3231;SDS011;1628;48.884;9.210;2022-09-09T07:31:04;3.20;;;1.53;;
3231;SDS011;1628;48.884;9.210;2022-09-09T07:33:32;3.10;;;1.50;;
3231;SDS011;1628;48.884;9.210;2022-09-09T07:36:03;2.43;;;1.00;;
3231;SDS011;1628;48.884;9.210;2022-09-09T07:38:36;3.63;;;1.00;;
3231;SDS011;1628;48.884;9.210;2022-09-09T07:41:04;2.80;;;1.30;;
3231;SDS011;1628;48.884;9.210;2022-09-09T07:43:33;4.00;;;1.30;;
3231;SDS011;1628;48.884;9.210;2022-09-09T07:46:01;3.60;;;1.43;;
3231;SDS011;1628;48.884;9.210;2022-09-09T07:48:28;4.83;;;1.60;;
3231;SDS011;1628;48.884;9.210;2022-09-09T07:51:03;1.43;;;1.20;;
3231;SDS011;1628;48.884;9.210;2022-09-09T07:53:31;1.37;;;0.80;;
3231;SDS011;1628;48.884;9.210;2022-09-09T07:56:01;1.83;;;1.13;;
3231;SDS011;1628;48.884;9.210;2022-09-09T07:58:29;4.10;;;1.50;;
3231;SDS011;1628;48.884;9.210;2022-09-09T08:00:55;1.80;;;1.40;;
3231;SDS011;1628;48.884;9.210;2022-09-09T08:03:24;1.90;;;1.10;;
3231;SDS011;1628;48.884;9.210;2022-09-09T08:05:50;1.90;;;1.20;;
3231;SDS011;1628;48.884;9.210;2022-09-09T08:08:17;1.20;;;1.10;;
3231;SDS011;1628;48.884;9.210;2022-09-09T08:10:44;1.10;;;1.00;;
3231;SDS011;1628;48.884;9.210;2022-09-09T08:13:11;1.73;;;1.27;;
3231;SDS011;1628;48.884;9.210;2022-09-09T08:15:38;1.53;;;1.23;;
3231;SDS011;1628;48.884;9.210;2022-09-09T08:18:04;1.97;;;1.30;;
3231;SDS011;1628;48.884;9.210;2022-09-09T08:20:32;1.17;;;0.93;;
3231;SDS011;1628;48.884;9.210;2022-09-09T08:23:01;3.30;;;1.10;;
3231;SDS011;1628;48.884;9.210;2022-09-09T08:25:28;1.60;;;0.90;;
3231;SDS011;1628;48.884;9.210;2022-09-09T08:27:54;6.03;;;1.50;;
3231;SDS011;1628;48.884;9.210;2022-09-09T08:30:21;2.77;;;1.33;;
3231;SDS011;1628;48.884;9.210;2022-09-09T08:32:48;1.20;;;1.10;;
3231;SDS011;1628;48.884;9.210;2022-09-09T08:35:16;3.57;;;1.07;;
3231;SDS011;1628;48.884;9.210;2022-09-09T08:37:44;2.57;;;1.20;;
3231;SDS011;1628;48.884;9.210;2022-09-09T08:40:11;1.40;;;1.20;;
3231;SDS011;1628;48.884;9.210;2022-09-09T08:42:47;2.33;;;1.10;;
3231;SDS011;1628;48.884;9.210;2022-09-09T08:45:19;4.10;;;1.30;;
3231;SDS011;1628;48.884;9.210;2022-09-09T08:47:57;2.70;;;1.00;;
3231;SDS011;1628;48.884;9.210;2022-09-09T08:50:34;4.57;;;1.53;;
3231;SDS011;1628;48.884;9.210;2022-09-09T08:53:05;1.80;;;1.00;;
3231;SDS011;1628;48.884;9.210;2022-09-09T08:55:41;2.10;;;1.10;;
3231;SDS011;1628;48.884;9.210;2022-09-09T08:58:14;2.00;;;1.10;;
3231;SDS011;1628;48.884;9.210;2022-09-09T09:03:42;2.20;;;1.20;;
3231;SDS011;1628;48.884;9.210;2022-09-09T09:06:19;2.73;;;1.40;;
3231;SDS011;1628;48.884;9.210;2022-09-09T09:08:56;2.03;;;1.20;;
3231;SDS011;1628;48.884;9.210;2022-09-09T09:11:33;2.00;;;1.13;;
3231;SDS011;1628;48.884;9.210;2022-09-09T09:14:02;2.60;;;1.63;;
3231;SDS011;1628;48.884;9.210;2022-09-09T09:16:38;3.27;;;1.90;;
3231;SDS011;1628;48.884;9.210;2022-09-09T09:19:10;2.00;;;1.00;;
3231;SDS011;1628;48.884;9.210;2022-09-09T09:21:41;2.27;;;2.07;;
3231;SDS011;1628;48.884;9.210;2022-09-09T09:24:14;0.80;;;0.80;;
3231;SDS011;1628;48.884;9.210;2022-09-09T09:26:45;1.83;;;1.00;;
3231;SDS011;1628;48.884;9.210;2022-09-09T09:29:12;1.60;;;1.07;;
3231;SDS011;1628;48.884;9.210;2022-09-09T09:31:41;2.23;;;1.00;;
3231;SDS011;1628;48.884;9.210;2022-09-09T09:34:12;1.40;;;1.00;;
3231;SDS011;1628;48.884;9.210;2022-09-09T09:36:40;1.07;;;0.90;;
3231;SDS011;1628;48.884;9.210;2022-09-09T09:39:09;2.30;;;1.00;;
3231;SDS011;1628;48.884;9.210;2022-09-09T09:41:38;5.13;;;1.57;;
3231;SDS011;1628;48.884;9.210;2022-09-09T09:44:20;2.00;;;1.03;;
3231;SDS011;1628;48.884;9.210;2022-09-09T09:46:49;2.63;;;1.53;;
3231;SDS011;1628;48.884;9.210;2022-09-09T09:49:16;3.57;;;1.43;;
3231;SDS011;1628;48.884;9.210;2022-09-09T09:51:43;2.10;;;1.13;;
3231;SDS011;1628;48.884;9.210;2022-09-09T09:54:15;3.13;;;1.20;;
3231;SDS011;1628;48.884;9.210;2022-09-09T09:56:49;3.00;;;1.13;;
3231;SDS011;1628;48.884;9.210;2022-09-09T09:59:20;4.13;;;1.27;;
3231;SDS011;1628;48.884;9.210;2022-09-09T10:01:48;1.60;;;1.20;;
3231;SDS011;1628;48.884;9.210;2022-09-09T10:04:16;3.63;;;1.20;;
3231;SDS011;1628;48.884;9.210;2022-09-09T10:06:45;2.90;;;1.20;;
3231;SDS011;1628;48.884;9.210;2022-09-09T10:09:20;1.53;;;1.10;;
3231;SDS011;1628;48.884;9.210;2022-09-09T10:11:52;1.50;;;1.00;;
3231;SDS011;1628;48.884;9.210;2022-09-09T10:14:24;3.20;;;1.20;;
3231;SDS011;1628;48.884;9.210;2022-09-09T10:17:03;1.77;;;1.00;;
3231;SDS011;1628;48.884;9.210;2022-09-09T10:19:42;1.93;;;0.83;;
3231;SDS011;1628;48.884;9.210;2022-09-09T10:22:25;1.33;;;0.83;;
3231;SDS011;1628;48.884;9.210;2022-09-09T10:24:57;4.50;;;0.93;;
3231;SDS011;1628;48.884;9.210;2022-09-09T10:27:47;2.50;;;1.20;;
3231;SDS011;1628;48.884;9.210;2022-09-09T10:30:26;1.93;;;0.80;;
3231;SDS011;1628;48.884;9.210;2022-09-09T10:33:01;2.97;;;1.20;;
3231;SDS011;1628;48.884;9.210;2022-09-09T10:35:34;1.60;;;0.93;;
3231;SDS011;1628;48.884;9.210;2022-09-09T10:38:14;1.00;;;0.70;;
3231;SDS011;1628;48.884;9.210;2022-09-09T10:40:43;0.80;;;0.73;;
3231;SDS011;1628;48.884;9.210;2022-09-09T10:43:32;1.30;;;0.90;;
3231;SDS011;1628;48.884;9.210;2022-09-09T10:46:20;3.77;;;1.40;;
3231;SDS011;1628;48.884;9.210;2022-09-09T10:48:59;2.60;;;1.00;;
3231;SDS011;1628;48.884;9.210;2022-09-09T10:51:39;2.27;;;1.20;;
3231;SDS011;1628;48.884;9.210;2022-09-09T10:54:24;1.03;;;0.73;;
3231;SDS011;1628;48.884;9.210;2022-09-09T10:57:02;2.10;;;1.03;;
3231;SDS011;1628;48.884;9.210;2022-09-09T10:59:41;1.80;;;1.30;;
3231;SDS011;1628;48.884;9.210;2022-09-09T11:02:16;5.63;;;1.20;;
3231;SDS011;1628;48.884;9.210;2022-09-09T11:04:48;2.63;;;0.90;;
3231;SDS011;1628;48.884;9.210;2022-09-09T11:07:22;3.60;;;1.00;;
3231;SDS011;1628;48.884;9.210;2022-09-09T11:09:54;1.70;;;1.00;;
3231;SDS011;1628;48.884;9.210;2022-09-09T11:12:25;2.87;;;1.20;;
3231;SDS011;1628;48.884;9.210;2022-09-09T11:14:57;1.60;;;0.90;;
3231;SDS011;1628;48.884;9.210;2022-09-09T11:17:29;3.50;;;1.63;;
3231;SDS011;1628;48.884;9.210;2022-09-09T11:20:04;2.53;;;1.00;;
3231;SDS011;1628;48.884;9.210;2022-09-09T11:22:33;4.90;;;1.93;;
3231;SDS011;1628;48.884;9.210;2022-09-09T11:25:06;5.90;;;1.23;;
3231;SDS011;1628;48.884;9.210;2022-09-09T11:27:42;7.13;;;2.07;;
3231;SDS011;1628;48.884;9.210;2022-09-09T11:30:20;4.03;;;1.60;;
3231;SDS011;1628;48.884;9.210;2022-09-09T11:32:54;5.63;;;1.60;;
3231;SDS011;1628;48.884;9.210;2022-09-09T11:35:53;3.70;;;1.70;;
3231;SDS011;1628;48.884;9.210;2022-09-09T11:38:34;3.70;;;1.63;;
3231;SDS011;1628;48.884;9.210;2022-09-09T11:41:10;1.70;;;1.10;;
3231;SDS011;1628;48.884;9.210;2022-09-09T11:43:39;3.30;;;1.40;;
3231;SDS011;1628;48.884;9.210;2022-09-09T11:46:09;10.33;;;1.10;;
3231;SDS011;1628;48.884;9.210;2022-09-09T11:48:38;1.00;;;0.90;;
3231;SDS011;1628;48.884;9.210;2022-09-09T11:51:08;5.50;;;1.30;;
3231;SDS011;1628;48.884;9.210;2022-09-09T11:53:47;1.43;;;0.80;;
3231;SDS011;1628;48.884;9.210;2022-09-09T11:56:23;1.03;;;0.90;;
3231;SDS011;1628;48.884;9.210;2022-09-09T11:58:56;2.33;;;0.80;;
3231;SDS011;1628;48.884;9.210;2022-09-09T12:04:32;1.00;;;0.90;;
3231;SDS011;1628;48.884;9.210;2022-09-09T12:07:03;10.80;;;2.10;;
3231;SDS011;1628;48.884;9.210;2022-09-09T12:09:32;1.27;;;0.80;;
3231;SDS011;1628;48.884;9.210;2022-09-09T12:12:17;1.30;;;1.03;;
3231;SDS011;1628;48.884;9.210;2022-09-09T12:15:03;0.70;;;0.70;;
3231;SDS011;1628;48.884;9.210;2022-09-09T12:17:50;5.17;;;0.77;;
3231;SDS011;1628;48.884;9.210;2022-09-09T12:20:20;0.70;;;0.70;;
3231;SDS011;1628;48.884;9.210;2022-09-09T12:22:57;1.63;;;0.73;;
3231;SDS011;1628;48.884;9.210;2022-09-09T12:25:41;4.60;;;0.97;;
3231;SDS011;1628;48.884;9.210;2022-09-09T12:28:21;1.93;;;0.80;;
3231;SDS011;1628;48.884;9.210;2022-09-09T12:30:55;2.17;;;0.73;;
3231;SDS011;1628;48.884;9.210;2022-09-09T12:33:32;2.97;;;1.63;;
3231;SDS011;1628;48.884;9.210;2022-09-09T12:36:01;3.20;;;0.90;;
3231;SDS011;1628;48.884;9.210;2022-09-09T12:38:32;3.67;;;0.80;;
3231;SDS011;1628;48.884;9.210;2022-09-09T12:41:01;0.97;;;0.60;;
3231;SDS011;1628;48.884;9.210;2022-09-09T12:43:28;1.57;;;0.80;;
3231;SDS011;1628;48.884;9.210;2022-09-09T12:45:56;1.67;;;0.70;;
3231;SDS011;1628;48.884;9.210;2022-09-09T12:48:29;1.07;;;0.80;;
3231;SDS011;1628;48.884;9.210;2022-09-09T12:50:59;2.00;;;1.00;;
3231;SDS011;1628;48.884;9.210;2022-09-09T12:53:27;0.90;;;0.90;;
3231;SDS011;1628;48.884;9.210;2022-09-09T12:55:56;1.50;;;0.80;;
3231;SDS011;1628;48.884;9.210;2022-09-09T12:58:25;0.70;;;0.60;;
3231;SDS011;1628;48.884;9.210;2022-09-09T13:00:53;1.00;;;0.80;;
3231;SDS011;1628;48.884;9.210;2022-09-09T13:03:22;2.00;;;0.70;;
3231;SDS011;1628;48.884;9.210;2022-09-09T13:05:51;0.57;;;0.50;;
3231;SDS011;1628;48.884;9.210;2022-09-09T13:08:19;0.80;;;0.50;;
3231;SDS011;1628;48.884;9.210;2022-09-09T13:10:47;1.50;;;0.93;;
3231;SDS011;1628;48.884;9.210;2022-09-09T13:13:19;2.17;;;1.60;;
3231;SDS011;1628;48.884;9.210;2022-09-09T13:15:48;1.30;;;0.77;;
3231;SDS011;1628;48.884;9.210;2022-09-09T13:18:17;0.50;;;0.50;;
3231;SDS011;1628;48.884;9.210;2022-09-09T13:20:47;0.60;;;0.60;;
3231;SDS011;1628;48.884;9.210;2022-09-09T13:23:16;0.97;;;0.53;;
3231;SDS011;1628;48.884;9.210;2022-09-09T13:25:52;1.47;;;0.77;;
3231;SDS011;1628;48.884;9.210;2022-09-09T13:28:20;1.03;;;0.97;;
3231;SDS011;1628;48.884;9.210;2022-09-09T13:30:55;0.80;;;0.70;;
3231;SDS011;1628;48.884;9.210;2022-09-09T13:33:29;2.80;;;0.90;;
3231;SDS011;1628;48.884;9.210;2022-09-09T13:35:58;1.67;;;0.77;;
3231;SDS011;1628;48.884;9.210;2022-09-09T13:38:30;0.77;;;0.60;;
3231;SDS011;1628;48.884;9.210;2022-09-09T13:41:00;1.27;;;0.70;;
3231;SDS011;1628;48.884;9.210;2022-09-09T13:43:29;1.87;;;0.80;;
3231;SDS011;1628;48.884;9.210;2022-09-09T13:46:00;0.90;;;0.70;;
3231;SDS011;1628;48.884;9.210;2022-09-09T13:48:28;0.93;;;0.80;;
3231;SDS011;1628;48.884;9.210;2022-09-09T13:50:57;1.83;;;0.67;;
3231;SDS011;1628;48.884;9.210;2022-09-09T13:53:25;0.73;;;0.73;;
3231;SDS011;1628;48.884;9.210;2022-09-09T13:55:53;2.70;;;0.90;;
3231;SDS011;1628;48.884;9.210;2022-09-09T13:58:21;1.50;;;0.87;;
3231;SDS011;1628;48.884;9.210;2022-09-09T14:00:50;1.67;;;0.80;;
3231;SDS011;1628;48.884;9.210;2022-09-09T14:03:17;2.20;;;0.83;;
3231;SDS011;1628;48.884;9.210;2022-09-09T14:05:44;1.07;;;0.70;;
3231;SDS011;1628;48.884;9.210;2022-09-09T14:08:15;1.53;;;0.80;;
3231;SDS011;1628;48.884;9.210;2022-09-09T14:10:48;1.03;;;0.70;;
3231;SDS011;1628;48.884;9.210;2022-09-09T14:13:16;1.57;;;0.80;;
3231;SDS011;1628;48.884;9.210;2022-09-09T14:15:43;1.63;;;1.33;;
3231;SDS011;1628;48.884;9.210;2022-09-09T14:18:11;0.73;;;0.70;;
3231;SDS011;1628;48.884;9.210;2022-09-09T14:20:39;0.83;;;0.63;;
3231;SDS011;1628;48.884;9.210;2022-09-09T14:23:05;2.50;;;0.80;;
3231;SDS011;1628;48.884;9.210;2022-09-09T14:25:36;1.37;;;0.80;;
3231;SDS011;1628;48.884;9.210;2022-09-09T14:28:02;1.53;;;1.00;;
3231;SDS011;1628;48.884;9.210;2022-09-09T14:30:30;1.50;;;0.70;;
3231;SDS011;1628;48.884;9.210;2022-09-09T14:32:57;1.00;;;0.70;;
3231;SDS011;1628;48.884;9.210;2022-09-09T14:35:25;1.57;;;0.93;;
3231;SDS011;1628;48.884;9.210;2022-09-09T14:37:51;2.93;;;0.90;;
3231;SDS011;1628;48.884;9.210;2022-09-09T14:40:18;1.83;;;1.10;;
3231;SDS011;1628;48.884;9.210;2022-09-09T14:42:45;2.03;;;0.70;;
3231;SDS011;1628;48.884;9.210;2022-09-09T14:45:12;1.87;;;0.80;;
3231;SDS011;1628;48.884;9.210;2022-09-09T14:47:40;1.73;;;0.70;;
3231;SDS011;1628;48.884;9.210;2022-09-09T14:50:07;1.70;;;0.70;;
3231;SDS011;1628;48.884;9.210;2022-09-09T14:52:34;1.47;;;0.67;;
3231;SDS011;1628;48.884;9.210;2022-09-09T14:55:00;1.70;;;0.90;;
3231;SDS011;1628;48.884;9.210;2022-09-09T14:57:27;1.27;;;0.60;;
3231;SDS011;1628;48.884;9.210;2022-09-09T14:59:53;1.73;;;0.87;;
3231;SDS011;1628;48.884;9.210;2022-09-09T15:02:21;3.40;;;0.80;;
3231;SDS011;1628;48.884;9.210;2022-09-09T15:04:50;0.83;;;0.80;;
3231;SDS011;1628;48.884;9.210;2022-09-09T15:07:17;3.33;;;0.70;;
3231;SDS011;1628;48.884;9.210;2022-09-09T15:09:44;1.00;;;0.67;;
3231;SDS011;1628;48.884;9.210;2022-09-09T15:12:12;1.23;;;0.80;;
3231;SDS011;1628;48.884;9.210;2022-09-09T15:14:39;1.13;;;0.60;;
3231;SDS011;1628;48.884;9.210;2022-09-09T15:17:06;2.63;;;0.70;;
3231;SDS011;1628;48.884;9.210;2022-09-09T15:19:32;0.70;;;0.67;;
3231;SDS011;1628;48.884;9.210;2022-09-09T15:22:00;1.33;;;0.60;;
3231;SDS011;1628;48.884;9.210;2022-09-09T15:24:27;5.67;;;0.80;;
3231;SDS011;1628;48.884;9.210;2022-09-09T15:26:54;1.47;;;0.80;;
3231;SDS011;1628;48.884;9.210;2022-09-09T15:29:21;0.87;;;0.50;;
3231;SDS011;1628;48.884;9.210;2022-09-09T15:31:48;1.87;;;0.57;;
3231;SDS011;1628;48.884;9.210;2022-09-09T15:34:14;3.03;;;0.50;;
3231;SDS011;1628;48.884;9.210;2022-09-09T15:36:43;1.70;;;0.53;;
3231;SDS011;1628;48.884;9.210;2022-09-09T15:39:12;1.07;;;0.57;;
3231;SDS011;1628;48.884;9.210;2022-09-09T15:41:41;0.50;;;0.50;;
3231;SDS011;1628;48.884;9.210;2022-09-09T15:44:08;0.70;;;0.70;;
3231;SDS011;1628;48.884;9.210;2022-09-09T15:46:37;1.90;;;0.60;;
3231;SDS011;1628;48.884;9.210;2022-09-09T15:49:06;1.80;;;0.80;;
3231;SDS011;1628;48.884;9.210;2022-09-09T15:51:35;1.70;;;0.80;;
3231;SDS011;1628;48.884;9.210;2022-09-09T15:54:03;0.83;;;0.70;;
3231;SDS011;1628;48.884;9.210;2022-09-09T15:56:31;3.40;;;0.60;;
3231;SDS011;1628;48.884;9.210;2022-09-09T15:59:00;2.47;;;0.60;;
3231;SDS011;1628;48.884;9.210;2022-09-09T16:01:28;0.93;;;0.60;;
3231;SDS011;1628;48.884;9.210;2022-09-09T16:03:56;0.90;;;0.77;;
3231;SDS011;1628;48.884;9.210;2022-09-09T16:06:23;0.70;;;0.70;;
3231;SDS011;1628;48.884;9.210;2022-09-09T16:08:53;1.90;;;0.70;;
3231;SDS011;1628;48.884;9.210;2022-09-09T16:11:22;0.60;;;0.60;;
3231;SDS011;1628;48.884;9.210;2022-09-09T16:13:51;2.40;;;0.90;;
3231;SDS011;1628;48.884;9.210;2022-09-09T16:16:19;0.73;;;0.70;;
3231;SDS011;1628;48.884;9.210;2022-09-09T16:18:49;2.37;;;0.80;;
3231;SDS011;1628;48.884;9.210;2022-09-09T16:21:19;0.73;;;0.67;;
3231;SDS011;1628;48.884;9.210;2022-09-09T16:23:49;2.17;;;0.70;;
3231;SDS011;1628;48.884;9.210;2022-09-09T16:26:18;2.03;;;0.70;;
3231;SDS011;1628;48.884;9.210;2022-09-09T16:28:45;1.50;;;0.70;;
3231;SDS011;1628;48.884;9.210;2022-09-09T16:31:15;1.70;;;0.47;;
3231;SDS011;1628;48.884;9.210;2022-09-09T16:33:42;3.40;;;0.53;;
3231;SDS011;1628;48.884;9.210;2022-09-09T16:36:10;0.93;;;0.70;;
3231;SDS011;1628;48.884;9.210;2022-09-09T16:38:38;2.20;;;2.10;;
3231;SDS011;1628;48.884;9.210;2022-09-09T16:41:06;2.73;;;1.10;;
3231;SDS011;1628;48.884;9.210;2022-09-09T16:43:33;0.93;;;0.80;;
3231;SDS011;1628;48.884;9.210;2022-09-09T16:46:01;1.70;;;0.80;;
3231;SDS011;1628;48.884;9.210;2022-09-09T16:48:31;1.17;;;0.60;;
3231;SDS011;1628;48.884;9.210;2022-09-09T16:51:01;3.33;;;0.50;;
3231;SDS011;1628;48.884;9.210;2022-09-09T16:53:28;4.43;;;0.80;;
3231;SDS011;1628;48.884;9.210;2022-09-09T16:55:55;2.20;;;0.70;;
3231;SDS011;1628;48.884;9.210;2022-09-09T16:58:22;0.60;;;0.60;;
3231;SDS011;1628;48.884;9.210;2022-09-09T17:00:48;0.50;;;0.50;;
3231;SDS011;1628;48.884;9.210;2022-09-09T17:03:16;4.50;;;0.77;;
3231;SDS011;1628;48.884;9.210;2022-09-09T17:05:44;2.20;;;1.47;;
3231;SDS011;1628;48.884;9.210;2022-09-09T17:08:10;0.97;;;0.90;;
3231;SDS011;1628;48.884;9.210;2022-09-09T17:10:39;0.60;;;0.50;;
3231;SDS011;1628;48.884;9.210;2022-09-09T17:13:07;1.93;;;0.60;;
3231;SDS011;1628;48.884;9.210;2022-09-09T17:15:38;0.93;;;0.53;;
3231;SDS011;1628;48.884;9.210;2022-09-09T17:18:07;0.63;;;0.50;;
3231;SDS011;1628;48.884;9.210;2022-09-09T17:20:35;3.20;;;0.40;;
3231;SDS011;1628;48.884;9.210;2022-09-09T17:23:03;0.97;;;0.50;;
3231;SDS011;1628;48.884;9.210;2022-09-09T17:25:30;0.83;;;0.83;;
3231;SDS011;1628;48.884;9.210;2022-09-09T17:27:57;1.53;;;1.30;;
3231;SDS011;1628;48.884;9.210;2022-09-09T17:30:24;1.60;;;1.60;;
3231;SDS011;1628;48.884;9.210;2022-09-09T17:32:51;2.10;;;0.80;;
3231;SDS011;1628;48.884;9.210;2022-09-09T17:35:18;0.90;;;0.50;;
3231;SDS011;1628;48.884;9.210;2022-09-09T17:37:44;1.23;;;0.80;;
3231;SDS011;1628;48.884;9.210;2022-09-09T17:40:13;0.70;;;0.70;;
3231;SDS011;1628;48.884;9.210;2022-09-09T17:42:39;4.90;;;0.77;;
3231;SDS011;1628;48.884;9.210;2022-09-09T17:45:07;0.70;;;0.70;;
3231;SDS011;1628;48.884;9.210;2022-09-09T17:47:34;1.17;;;0.60;;
3231;SDS011;1628;48.884;9.210;2022-09-09T17:50:01;0.60;;;0.60;;
3231;SDS011;1628;48.884;9.210;2022-09-09T17:52:28;1.40;;;0.87;;
3231;SDS011;1628;48.884;9.210;2022-09-09T17:54:55;1.17;;;0.97;;
3231;SDS011;1628;48.884;9.210;2022-09-09T17:57:24;0.80;;;0.77;;
3231;SDS011;1628;48.884;9.210;2022-09-09T17:59:51;1.17;;;0.53;;
3231;SDS011;1628;48.884;9.210;2022-09-09T18:02:18;3.80;;;2.47;;
3231;SDS011;1628;48.884;9.210;2022-09-09T18:04:44;1.30;;;1.20;;
3231;SDS011;1628;48.884;9.210;2022-09-09T18:07:12;3.73;;;1.23;;
3231;SDS011;1628;48.884;9.210;2022-09-09T18:09:38;1.10;;;1.00;;
3231;SDS011;1628;48.884;9.210;2022-09-09T18:12:06;2.30;;;0.93;;
3231;SDS011;1628;48.884;9.210;2022-09-09T18:14:34;1.07;;;1.00;;
3231;SDS011;1628;48.884;9.210;2022-09-09T18:17:01;1.43;;;0.80;;
3231;SDS011;1628;48.884;9.210;2022-09-09T18:19:29;0.80;;;0.80;;
3231;SDS011;1628;48.884;9.210;2022-09-09T18:21:57;2.33;;;1.10;;
3231;SDS011;1628;48.884;9.210;2022-09-09T18:24:24;1.17;;;1.07;;
3231;SDS011;1628;48.884;9.210;2022-09-09T18:26:50;2.30;;;0.90;;
3231;SDS011;1628;48.884;9.210;2022-09-09T18:29:19;2.33;;;1.20;;
3231;SDS011;1628;48.884;9.210;2022-09-09T18:31:49;1.27;;;1.00;;
3231;SDS011;1628;48.884;9.210;2022-09-09T18:34:17;1.27;;;1.17;;
3231;SDS011;1628;48.884;9.210;2022-09-09T18:36:46;1.77;;;1.00;;
3231;SDS011;1628;48.884;9.210;2022-09-09T18:39:18;0.90;;;0.80;;
3231;SDS011;1628;48.884;9.210;2022-09-09T18:41:46;2.40;;;1.20;;
3231;SDS011;1628;48.884;9.210;2022-09-09T18:44:15;1.07;;;0.80;;
3231;SDS011;1628;48.884;9.210;2022-09-09T18:46:44;1.33;;;1.00;;
3231;SDS011;1628;48.884;9.210;2022-09-09T18:49:13;3.07;;;1.00;;
3231;SDS011;1628;48.884;9.210;2022-09-09T18:51:40;3.20;;;1.20;;
3231;SDS011;1628;48.884;9.210;2022-09-09T18:54:09;1.20;;;1.03;;
3231;SDS011;1628;48.884;9.210;2022-09-09T18:56:38;1.73;;;1.30;;
3231;SDS011;1628;48.884;9.210;2022-09-09T18:59:06;0.90;;;0.90;;
3231;SDS011;1628;48.884;9.210;2022-09-09T19:01:35;1.13;;;0.80;;
3231;SDS011;1628;48.884;9.210;2022-09-09T19:04:02;1.30;;;1.20;;
3231;SDS011;1628;48.884;9.210;2022-09-09T19:06:32;1.40;;;1.20;;
3231;SDS011;1628;48.884;9.210;2022-09-09T19:09:01;2.00;;;1.57;;
3231;SDS011;1628;48.884;9.210;2022-09-09T19:11:28;1.20;;;1.20;;
3231;SDS011;1628;48.884;9.210;2022-09-09T19:13:56;3.10;;;1.50;;
3231;SDS011;1628;48.884;9.210;2022-09-09T19:16:24;1.93;;;1.13;;
3231;SDS011;1628;48.884;9.210;2022-09-09T19:18:53;3.57;;;1.70;;
3231;SDS011;1628;48.884;9.210;2022-09-09T19:21:21;2.90;;;1.80;;
3231;SDS011;1628;48.884;9.210;2022-09-09T19:23:54;3.20;;;1.87;;
3231;SDS011;1628;48.884;9.210;2022-09-09T19:26:24;1.63;;;1.53;;
3231;SDS011;1628;48.884;9.210;2022-09-09T19:28:51;1.33;;;1.20;;
3231;SDS011;1628;48.884;9.210;2022-09-09T19:31:18;1.10;;;1.03;;
3231;SDS011;1628;48.884;9.210;2022-09-09T19:33:46;1.60;;;1.17;;
3231;SDS011;1628;48.884;9.210;2022-09-09T19:36:15;1.70;;;0.90;;